Etusivu
METAR-TAF:

METAR-TAF

Lentoasemat :

Princeton Municipal Airport

Princeton, Minnesota, Yhdysvallat

Leveyspiiri: 45-33N, Pituuspiiri: 093-36W, korkeus merenpinnasta: 298 m

Tämänhetkinen sää

Tämä raportti tehtiin 20 minuuttia sitten, kello 11.35 UTC
Tuuli 10 kn pohjoisen/luoteesta
Lämpötila 1°C
Kosteus 100%
Ilmanpaine 1007 hPa
Näkyvyys: 6.4 km
Hajanaisia pilviä 800 ft:n korkeudessa
Hajonneita pilviä 1300 ft:n korkeudessa
Pilvistä 2100 ft:n korkeudessa
heikkoa lumisadetta

METAR: KPNM 211135Z AUTO 33010KT 4SM -SN SCT008 BKN013 OVC021 01/01 A2973 RMK AO2 P0001 P0001

Aika: 05:55 (11:55 UTC)


TAF: puuttuu

Säähavainnot ja -ennusteet yli 4000 lentoasemalta (METAR- ja TAF-raportit).

Käytössä olevat sääasemat on merkitty karttaan keltaisilla ja punaisilla pisteillä.

Aseta hiiri pisteen päälle nähdäksesi sääaseman nimen.

Klikkaa sitten nähdäksesi säähavainnot ja -ennusteet.

Kartan vaihtaminen: klikkaa mustalla rastilla varustettuja vihreitä pisteitä, niin voit zoomata sisään; viivalla varustettua vihreää pistettä, niin voit zoomata ulos tai vihreitä nuolia, niin pääset viereisille kartoille.


METAR-TAF: